Tiempo atmosférico en la estación meteorológica de Capdepera, Illes Balears (57 m.)



Fecha
DESCASC
Temp. máxima en grados centígrados (hora)
DESCASC
Temp. mínima en grados centígrados (hora)
DESCASC
Temp. media en grados centígrados
DESCASC
Racha de viento máxima en m/sg (hora)
DESCASC
Velocidad máxima media en intervalos de 10 minutos(hora)
DESCASC
Precipitaciones diarias en mm
DESCASC
Precipitaciones de 00:00 a 06:00 en mm
DESCASC
Precipitaciones de 06:00 a 12:00 en mm
DESCASC
Precipitaciones de 12:00 a 18:00 en mm
DESCASC
Precipitaciones de 18:00 a 24:00 en mm
DESCASC
11-12-2019 19.8 (13:20) 11.2 (07:00) 15.5 19.72 (19:20) 15 (21:10) 0.2 0 0 0 0.2
10-12-2019 15.1 (14:40) 11.8 (19:50) 13.5 23.61 (11:20) 18.61 (11:20) 0.2 0.1 0.1 0 0
09-12-2019 18.2 (09:50) 13 (07:30) 15.6 22.22 (15:30) 13.33 (15:10) 0 0 0 0 0
08-12-2019 18.4 (12:00) 12 (00:00) 15.2 6.39 (13:20) 3.89 (16:30) 0 0 0 0 0
07-12-2019 18.4 (14:10) 12.9 (00:00) 15.6 5 (16:00) 3.89 (16:00) 0 0 0 0 0
06-12-2019 18.8 (12:40) 13.5 (00:00) 16.1 6.67 (15:00) 5.83 (15:00) 0 0 0 0 0
05-12-2019 19.6 (12:40) 12.8 (00:00) 16.2 7.78 (14:20) 4.17 (14:20) 0 0 0 0 0
04-12-2019 16.6 (07:50) 10.1 (00:00) 13.4 24.72 (03:30) 18.61 (03:30) 11.4 0.3 0 11.1 0
03-12-2019 16.4 (23:30) 12.3 (00:00) 14.3 17.78 (08:20) 13.33 (07:10) 0 0 0 0 0
02-12-2019 15.6 (00:00) 12.7 (00:00) 14.2 15.83 (23:10) 12.78 (21:00) 32.5 8.7 23.8 0 0
01-12-2019 20.6 (13:40) 14.9 (00:00) 17.8 10.83 (00:30) 6.67 (15:20) 0 0 0 0 0
30-11-2019 19.9 (11:50) 14.4 (00:00) 17.1 11.11 (13:00) 6.67 (13:00) 0 0 0 0 0
29-11-2019 22.1 (13:40) 14.2 (00:00) 18.2 9.17 (02:40) 5.83 (23:20) 0 0 0 0 0
28-11-2019 22.8 (13:20) 14.3 (00:00) 18.5 9.17 (20:30) 4.17 (03:10) 0 0 0 0 0
27-11-2019 23.5 (11:30) 14.2 (00:00) 18.8 13.61 (04:40) 8.33 (14:20) 0 0 0 0 0
26-11-2019 -- (--) -- (--) -- -- (--) -- (--) -- -- -- 0 0
25-11-2019 -- (--) -- (--) -- -- (--) -- (--) -- -- -- -- --
24-11-2019 -- (--) -- (--) -- -- (--) -- (--) -- -- -- -- --
23-11-2019 -- (--) -- (--) -- -- (--) -- (--) -- -- -- -- --
22-11-2019 -- (--) -- (--) -- -- (--) -- (--) -- -- -- -- --
21-11-2019 -- (--) -- (--) -- -- (--) -- (--) -- -- -- -- --
20-11-2019 -- (--) -- (--) -- -- (--) -- (--) -- -- -- -- --
19-11-2019 -- (--) -- (--) -- -- (--) -- (--) -- -- -- -- --
18-11-2019 -- (--) -- (--) -- -- (--) -- (--) -- -- -- -- --
17-11-2019 -- (--) -- (--) -- -- (--) -- (--) -- -- -- -- --
16-11-2019 -- (--) -- (--) -- -- (--) -- (--) -- 0 0 -- --
15-11-2019 -- (--) -- (--) -- -- (--) -- (--) -- -- -- 0 0

Gráficas

Temp. máximas Temp. mínimas Temp. medias Precipitaciones Rachas de viento máximas Velocidades máximas media en intervalos de 10 minutos

Datos horarios

Fecha y hora oficial Temperatura (ºC) Velocidad del viento (km/h) Dirección del viento Racha (km/h) Dirección de racha Precipitación (mm) Presión (hPa) Tendencia (hPa) Humedad (%)
2019-12-14 23:00:00 13.6 8 Sudoeste 17 Oeste 0 -- -- 83
2019-12-14 22:00:00 14 9 Sudoeste 19 Oeste 0 -- -- 82
2019-12-14 21:00:00 14.4 11 Sudoeste 18 Oeste 0 -- -- 81
2019-12-14 20:00:00 15.1 8 Noroeste 13 Noroeste 0 -- -- 81
2019-12-14 19:00:00 15.7 10 Noroeste 14 Noroeste 0 -- -- 84
2019-12-14 18:00:00 16.8 6 Sudeste 18 Sudeste 0 -- -- 77
2019-12-14 17:00:00 16.4 3 Este 14 Sudeste 0 -- -- 69
2019-12-14 16:00:00 18.3 3 Sudeste 17 Sudeste 0 -- -- 59
2019-12-14 15:00:00 19.2 9 Noroeste 35 Norte 0 -- -- 56
2019-12-14 14:00:00 18.4 13 Norte 21 Nordeste 0 -- -- 62
2019-12-14 13:00:00 19.3 12 Nordeste 24 Norte 0 -- -- 62
2019-12-14 12:00:00 22.8 4 Oeste 16 Oeste 0 -- -- 47
2019-12-14 11:00:00 20 4 Sudoeste 23 Sudoeste 0 -- -- 57
2019-12-14 10:00:00 17.9 12 Sudoeste 27 Sudoeste 0 -- -- 62
2019-12-14 09:00:00 18.1 7 Sudoeste 20 Noroeste 0 -- -- 59
2019-12-14 08:00:00 15.3 10 Oeste 23 Oeste 0 -- -- 67
2019-12-14 07:00:00 15.7 8 Sudoeste 20 Sudoeste 0 -- -- 67
2019-12-14 06:00:00 16.1 0 Calma 18 Oeste 0 -- -- 65
2019-12-14 05:00:00 17.4 14 Oeste 40 Oeste 0 -- -- 57
2019-12-14 04:00:00 17.9 16 Norte 41 Oeste 0 -- -- 58
2019-12-14 03:00:00 18 13 Noroeste 40 Noroeste 0 -- -- 58
2019-12-14 02:00:00 18 11 Oeste 32 Oeste 0 -- -- 56
2019-12-14 01:00:00 18.8 17 Oeste 39 Oeste 0 -- -- 54
2019-12-14 00:00:00 19.4 15 Noroeste 50 Oeste 0 -- -- 53
2019-12-13 23:00:00 18.7 13 Oeste 40 Noroeste 0 -- -- 55
2019-12-13 22:00:00 19.7 19 Oeste 54 Oeste 0 -- -- 52
2019-12-13 21:00:00 19.4 20 Noroeste 61 Oeste 0 -- -- 52
2019-12-13 20:00:00 19.3 13 Noroeste 54 Oeste 0 -- -- 51
2019-12-13 19:00:00 19.2 12 Noroeste 52 Oeste 0 -- -- 50
2019-12-13 18:00:00 19.3 12 Oeste 49 Oeste 0 -- -- 50
2019-12-13 17:00:00 19.7 18 Noroeste 47 Oeste 0 -- -- 50
2019-12-13 16:00:00 18.9 11 Oeste 60 Oeste 0 -- -- 56
2019-12-13 15:00:00 20.3 20 Oeste 61 Oeste 0 -- -- 50
2019-12-13 14:00:00 19.8 12 Oeste 39 Noroeste 0 -- -- 58
2019-12-13 13:00:00 18.8 12 Oeste 37 Oeste 0 -- -- 65
2019-12-13 12:00:00 19 10 Sudoeste 39 Oeste 0 -- -- 65
2019-12-13 11:00:00 18 17 Oeste 38 Sudoeste 0 -- -- 68
2019-12-13 10:00:00 16.9 11 Oeste 38 Oeste 0 -- -- 71
2019-12-13 09:00:00 16.4 14 Oeste 43 Oeste 0 -- -- 71
2019-12-13 08:00:00 15.4 13 Sudoeste 41 Oeste 0 -- -- 74
2019-12-13 07:00:00 15.5 13 Oeste 44 Oeste 0 -- -- 72
2019-12-13 06:00:00 15.3 14 Sudoeste 37 Sudoeste 0 -- -- 70
2019-12-13 05:00:00 14.9 12 Sudoeste 34 Sudoeste 0 -- -- 71
2019-12-13 04:00:00 14.8 11 Sudoeste 36 Oeste 0 -- -- 71
2019-12-13 03:00:00 14.6 11 Sudoeste 35 Sudoeste 0 -- -- 71
2019-12-13 02:00:00 14.3 8 Sudoeste 36 Oeste 0 -- -- 70
2019-12-13 01:00:00 13.7 10 Sudoeste 35 Sudoeste 0 -- -- 71
2019-12-13 00:00:00 13.2 13 Sudoeste 31 Sudoeste 0 -- -- 71
2019-12-12 23:00:00 13.3 6 Oeste 20 Oeste 0 -- -- 71
2019-12-12 22:00:00 12.9 7 Sudoeste 25 Oeste 0 -- -- 73
2019-12-12 21:00:00 13.1 10 Sudoeste 31 Oeste 0 -- -- 73
2019-12-12 20:00:00 13.1 13 Oeste 30 Oeste 0 -- -- 72
2019-12-12 19:00:00 12.6 12 Oeste 28 Sudoeste 0 -- -- 74
2019-12-12 18:00:00 13.1 10 Oeste 25 Sudoeste 0 -- -- 70
2019-12-12 17:00:00 14 8 Oeste 19 Oeste 0 -- -- 61
2019-12-12 16:00:00 14.9 7 Oeste 23 Sudoeste 0 -- -- 53
2019-12-12 15:00:00 16 8 Oeste 30 Oeste 0 -- -- 50
2019-12-12 14:00:00 17.7 5 Oeste 25 Sudoeste 0 -- -- 49
2019-12-12 13:00:00 17.4 9 Oeste 38 Oeste 0 -- -- 50
2019-12-12 12:00:00 15.3 9 Noroeste 32 Oeste 0 -- -- 55
2019-12-12 11:00:00 13.9 13 Oeste 37 Noroeste 0 -- -- 56
2019-12-12 10:00:00 14.7 9 Noroeste 35 Noroeste 0 -- -- 56
2019-12-12 09:00:00 13.3 9 Noroeste 35 Noroeste 0 -- -- 59
2019-12-12 08:00:00 13.1 8 Oeste 53 Noroeste 0 -- -- 59
2019-12-12 07:00:00 13.3 25 Norte 51 Norte 0 -- -- 59
2019-12-12 06:00:00 13.1 15 Norte 44 Norte 0 -- -- 59
2019-12-12 05:00:00 11.7 7 Sudoeste 34 Oeste 0 -- -- 63
2019-12-12 04:00:00 11.9 13 Oeste 29 Noroeste 0 -- -- 66
2019-12-12 03:00:00 11.1 6 Oeste 17 Oeste 0 -- -- 77
2019-12-12 02:00:00 11.7 4 Sudoeste 22 Oeste 0 -- -- 74
2019-12-12 01:00:00 11.9 8 Oeste 18 Norte 0 -- -- 73
2019-12-12 00:00:00 12.7 14 Norte 33 Norte 0 -- -- 73
2019-12-11 23:00:00 12.7 28 Norte 50 Norte 0 -- -- 71
2019-12-11 22:00:00 12.8 42 Norte 62 Norte 0 -- -- 74
2019-12-11 21:00:00 13.2 51 Norte 63 Norte 0 -- -- 77
2019-12-11 20:00:00 13 41 Norte 71 Noroeste 0.1 -- -- 78
2019-12-11 19:00:00 13.7 33 Norte 57 Noroeste 0.1 -- -- 74
2019-12-11 18:00:00 15.1 12 Noroeste 29 Noroeste 0 -- -- 62
2019-12-11 17:00:00 15.5 8 Noroeste 21 Oeste 0 -- -- 62
2019-12-11 16:00:00 16.7 2 Sudoeste 18 Sudoeste 0 -- -- 65
2019-12-11 15:00:00 17.2 4 Sudoeste 34 Sudoeste 0 -- -- 65
2019-12-11 14:00:00 18.2 11 Sudoeste 19 Sur 0 -- -- 62
2019-12-11 13:00:00 18.5 10 Sur 16 Sur 0 -- -- 62
2019-12-11 12:00:00 17.5 4 Sudoeste 18 Sudoeste 0 -- -- 61
2019-12-11 11:00:00 16.2 3 Sudoeste 18 Sudoeste 0 -- -- 66
2019-12-11 10:00:00 16.3 2 Sudoeste 15 Oeste 0 -- -- 69
2019-12-11 09:00:00 12.6 5 Sudoeste 15 Sudoeste 0 -- -- 76
2019-12-11 08:00:00 11.5 3 Sudoeste 12 Sudoeste 0 -- -- 75
2019-12-11 07:00:00 11.3 3 Sudoeste 15 Sudoeste 0 -- -- 71
2019-12-11 06:00:00 11.4 6 Sudoeste 14 Oeste 0 -- -- 68
2019-12-11 05:00:00 12 9 Oeste 17 Oeste 0 -- -- 67
2019-12-11 04:00:00 11.8 10 Oeste 15 Oeste 0 -- -- 68
2019-12-11 03:00:00 12.1 8 Oeste 15 Sudoeste 0 -- -- 63
2019-12-11 02:00:00 11.7 10 Oeste 15 Oeste 0 -- -- 65
2019-12-11 01:00:00 12 6 Noroeste 17 Noroeste 0 -- -- 68
2019-12-11 00:00:00 12.3 11 Noroeste 15 Noroeste 0 -- -- 65
2019-12-10 23:00:00 12.3 6 Noroeste 10 Noroeste 0 -- -- 65
2019-12-10 22:00:00 12.1 7 Oeste 12 Noroeste 0 -- -- 66
2019-12-10 21:00:00 12 8 Noroeste 14 Oeste 0 -- -- 67
2019-12-10 20:00:00 12 9 Oeste 13 Oeste 0 -- -- 65
2019-12-10 19:00:00 12.6 8 Oeste 14 Oeste 0 -- -- 56
2019-12-10 18:00:00 12.8 9 Noroeste 23 Noroeste 0 -- -- 62
2019-12-10 17:00:00 13.7 15 Norte 30 Norte 0 -- -- 53
2019-12-10 16:00:00 14.5 21 Norte 47 Norte 0 -- -- 50
2019-12-10 15:00:00 14.8 28 Norte 49 Noroeste 0 -- -- 50
2019-12-10 14:00:00 14.6 41 Norte 66 Noroeste 0 -- -- 53
2019-12-10 13:00:00 14.4 54 Norte 80 Norte 0 -- -- 51
2019-12-10 12:00:00 14.2 62 Norte 85 Norte 0 -- -- 48
2019-12-10 11:00:00 14 60 Norte 80 Norte 0 -- -- 50
2019-12-10 10:00:00 14.1 59 Norte 76 Noroeste 0 -- -- 54
2019-12-10 09:00:00 13.5 58 Norte 71 Norte 0.1 -- -- 63
2019-12-10 08:00:00 13.1 53 Norte 63 Norte 0 -- -- 68
2019-12-10 07:00:00 13.3 45 Norte 58 Norte 0 -- -- 72
2019-12-10 06:00:00 13.2 45 Norte 60 Norte 0 -- -- 74
2019-12-10 05:00:00 12.5 50 Norte 62 Norte 0.1 -- -- 79
2019-12-10 04:00:00 13.7 40 Norte 50 Noroeste 0 -- -- 70
2019-12-10 03:00:00 13.5 32 Norte 50 Noroeste 0 -- -- 72
2019-12-10 02:00:00 14 31 Norte 55 Norte 0 -- -- 69
2019-12-10 01:00:00 14 40 Norte 58 Noroeste 0 -- -- 68
2019-12-10 00:00:00 14.5 41 Norte 57 Noroeste 0 -- -- 65
2019-12-09 23:00:00 14.7 26 Norte 45 Norte 0 -- -- 65
2019-12-09 22:00:00 14.7 13 Norte 48 Noroeste 0 -- -- 62
2019-12-09 21:00:00 14.6 18 Norte 49 Norte 0 -- -- 64
2019-12-09 20:00:00 14.8 26 Norte 55 Noroeste 0 -- -- 63
2019-12-09 19:00:00 14.6 15 Norte 44 Noroeste 0 -- -- 61
2019-12-09 18:00:00 14.7 21 Norte 65 Noroeste 0 -- -- 59
2019-12-09 17:00:00 14.9 33 Norte 65 Norte 0 -- -- 57
2019-12-09 16:00:00 15.5 33 Norte 80 Norte 0 -- -- 56
2019-12-09 15:00:00 16 47 Norte 77 Norte 0 -- -- 53
2019-12-09 14:00:00 16.5 31 Norte 68 Noroeste 0 -- -- 48
2019-12-09 13:00:00 17.3 11 Noroeste 64 Noroeste 0 -- -- 43
2019-12-09 12:00:00 17.8 22 Noroeste 54 Oeste 0 -- -- 41
2019-12-09 11:00:00 17.4 15 Noroeste 49 Norte 0 -- -- 47
2019-12-09 10:00:00 16.8 18 Noroeste 28 Noroeste 0 -- -- 67
2019-12-09 09:00:00 16.5 0 Calma 10 Sur 0 -- -- 73
2019-12-09 08:00:00 13.3 5 Sur 12 Oeste 0 -- -- 82
2019-12-09 07:00:00 13.3 2 Sudoeste 14 Oeste 0 -- -- 84
2019-12-09 06:00:00 13.3 12 Oeste 17 Oeste 0 -- -- 87
2019-12-09 05:00:00 13.3 6 Sudoeste 23 Sur 0 -- -- 86
2019-12-09 04:00:00 14.1 5 Sur 15 Noroeste 0 -- -- 84
2019-12-09 03:00:00 14.1 7 Oeste 12 Noroeste 0 -- -- 84
2019-12-09 02:00:00 14 4 Sudoeste 19 Oeste 0 -- -- 85
2019-12-09 01:00:00 13.7 10 Norte 16 Sudoeste 0 -- -- 86
2019-12-09 00:00:00 13.4 4 Sudoeste 22 Oeste 0 -- -- 89
2019-12-08 23:00:00 13.1 5 Sudoeste 19 Oeste 0 -- -- 89
2019-12-08 22:00:00 12.9 5 Oeste 13 Oeste 0 -- -- 88
2019-12-08 21:00:00 13.1 6 Norte 18 Oeste 0 -- -- 87
2019-12-08 20:00:00 13 5 Oeste 18 Sudoeste 0 -- -- 87
2019-12-08 19:00:00 13.2 4 Oeste 14 Sudoeste 0 -- -- 85
2019-12-08 18:00:00 14 5 Oeste 13 Oeste 0 -- -- 84
2019-12-08 17:00:00 15 10 Norte 16 Norte 0 -- -- 86
2019-12-08 16:00:00 16.7 3 Noroeste 19 Sur 0 -- -- 75
2019-12-08 15:00:00 16.4 9 Sur 15 Sur 0 -- -- 75
2019-12-08 14:00:00 16.6 4 Noroeste 23 Sudoeste 0 -- -- 78
2019-12-08 13:00:00 16.5 9 Sur 21 Sur 0 -- -- 77
2019-12-08 12:00:00 17.5 11 Sur 15 Sur 0 -- -- 71
2019-12-08 11:00:00 18 4 Sur 11 Sudoeste 0 -- -- 70
2019-12-08 10:00:00 16.7 0 Calma 10 Sudoeste 0 -- -- 77
2019-12-08 09:00:00 14.7 4 Sudoeste 13 Sudoeste 0 -- -- 83
2019-12-08 08:00:00 12.3 6 Sudoeste 10 Sudoeste 0 -- -- 89
2019-12-08 07:00:00 12.4 8 Oeste 13 Oeste 0 -- -- 87
2019-12-08 06:00:00 12.3 5 Sudoeste 10 Sur 0 -- -- 86
2019-12-08 05:00:00 12.8 6 Sur 10 Sur 0 -- -- 85
2019-12-08 04:00:00 12.7 5 Sudoeste 9 Sudoeste 0 -- -- 88
2019-12-08 03:00:00 12.5 7 Sudoeste 10 Oeste 0 -- -- 91
2019-12-08 02:00:00 12.5 6 Sudoeste 12 Noroeste 0 -- -- 91
2019-12-08 01:00:00 12.9 9 Noroeste 13 Noroeste 0 -- -- 92
2019-12-08 00:00:00 13.3 8 Noroeste 13 Noroeste 0 -- -- 92
2019-12-07 23:00:00 13.7 8 Noroeste 14 Noroeste 0 -- -- 90
2019-12-07 22:00:00 13.3 5 Oeste 8 Oeste 0 -- -- 90
2019-12-07 21:00:00 13.5 0 Calma 5 Noroeste 0 -- -- 90
2019-12-07 20:00:00 13.6 2 Noroeste 8 Noroeste 0 -- -- 89
2019-12-07 19:00:00 13.8 7 Noroeste 10 Noroeste 0 -- -- 87
2019-12-07 18:00:00 14.2 5 Noroeste 14 Noroeste 0 -- -- 85
2019-12-07 17:00:00 14.7 8 Noroeste 16 Noroeste 0 -- -- 81
2019-12-07 16:00:00 16.7 14 Noroeste 18 Noroeste 0 -- -- 74
2019-12-07 15:00:00 17.8 13 Noroeste 16 Noroeste 0 -- -- 71
2019-12-07 14:00:00 17.9 13 Noroeste 15 Noroeste 0 -- -- 70
2019-12-07 13:00:00 16.7 5 Noroeste 12 Noroeste 0 -- -- 78
2019-12-07 12:00:00 17 9 Noroeste 12 Norte 0 -- -- 77
2019-12-07 11:00:00 14.9 5 Noroeste 9 Noroeste 0 -- -- 89
2019-12-07 10:00:00 13.7 3 Noroeste 10 Noroeste 0 -- -- 92
2019-12-07 09:00:00 13.2 2 Sudoeste 6 Sudoeste 0 -- -- 93
2019-12-07 08:00:00 13 2 Noroeste 5 Noroeste 0 -- -- 93
2019-12-07 07:00:00 13.3 0 Calma 12 Noroeste 0 -- -- 93
2019-12-07 06:00:00 13.1 6 Noroeste 14 Noroeste 0 -- -- 93
2019-12-07 05:00:00 13 8 Noroeste 10 Noroeste 0 -- -- 90
2019-12-07 04:00:00 13.3 6 Noroeste 10 Noroeste 0 -- -- 89
2019-12-07 03:00:00 13.2 3 Sur 5 Noroeste 0 -- -- 89
2019-12-07 02:00:00 13.5 3 Noroeste 7 Noroeste 0 -- -- 88
2019-12-07 01:00:00 13.7 3 Noroeste 5 Noroeste 0 -- -- 86
2019-12-07 00:00:00 13.6 2 Noroeste 3 Noroeste 0 -- -- 86
2019-12-06 23:00:00 13.9 0 Calma 4 Noroeste 0 -- -- 85
2019-12-06 22:00:00 14.2 2 Norte 16 Noroeste 0 -- -- 85
2019-12-06 21:00:00 14.4 14 Norte 19 Norte 0 -- -- 85
2019-12-06 20:00:00 14.5 15 Norte 19 Norte 0 -- -- 85
2019-12-06 19:00:00 14.5 13 Norte 17 Noroeste 0 -- -- 86
2019-12-06 18:00:00 14.6 13 Norte 17 Norte 0 -- -- 84
2019-12-06 17:00:00 15.3 13 Norte 18 Noroeste 0 -- -- 82
2019-12-06 16:00:00 15.9 15 Noroeste 23 Noroeste 0 -- -- 78
2019-12-06 15:00:00 17.1 21 Noroeste 24 Noroeste 0 -- -- 75
2019-12-06 14:00:00 18 17 Noroeste 24 Noroeste 0 -- -- 75
2019-12-06 13:00:00 18.3 16 Norte 19 Norte 0 -- -- 74
2019-12-06 12:00:00 17.9 11 Norte 18 Noroeste 0 -- -- 77
2019-12-06 11:00:00 17.4 12 Norte 14 Norte 0 -- -- 79
2019-12-06 10:00:00 15.9 6 Noroeste 11 Noroeste 0 -- -- 90
2019-12-06 09:00:00 14.2 6 Noroeste 11 Noroeste 0 -- -- 93
2019-12-06 08:00:00 14 9 Noroeste 12 Noroeste 0 -- -- 93
2019-12-06 07:00:00 14 7 Noroeste 10 Norte 0 -- -- 93
2019-12-06 06:00:00 13.7 7 Noroeste 11 Noroeste 0 -- -- 93
2019-12-06 05:00:00 13.8 8 Noroeste 12 Noroeste 0 -- -- 92
2019-12-06 04:00:00 13.9 7 Noroeste 11 Noroeste 0 -- -- 92
2019-12-06 03:00:00 14 6 Norte 9 Noroeste 0 -- -- 92
2019-12-06 02:00:00 14 6 Noroeste 13 Noroeste 0 -- -- 91
2019-12-06 01:00:00 14.1 8 Norte 10 Norte 0 -- -- 90
2019-12-06 00:00:00 14.2 3 Norte 5 Norte 0 -- -- 89
2019-12-05 23:00:00 14.3 4 Noroeste 10 Noroeste 0 -- -- 89
2019-12-05 22:00:00 14.4 8 Norte 10 Norte 0 -- -- 86
2019-12-05 21:00:00 14.2 5 Oeste 9 Sudoeste 0 -- -- 87
2019-12-05 20:00:00 14.3 6 Noroeste 9 Noroeste 0 -- -- 87
2019-12-05 19:00:00 14.4 3 Oeste 11 Sudoeste 0 -- -- 87
2019-12-05 18:00:00 15.2 9 Sur 13 Sudoeste 0 -- -- 85
2019-12-05 17:00:00 15.7 0 Calma 6 Oeste 0 -- -- 77
2019-12-05 16:00:00 15.9 7 Sudoeste 23 Sudoeste 0 -- -- 78
2019-12-05 15:00:00 15.9 8 Sudoeste 28 Sudoeste 0 -- -- 77
2019-12-05 14:00:00 17.7 14 Sur 20 Sur 0 -- -- 72
2019-12-05 13:00:00 19.6 8 Sur 15 Sur 0 -- -- 69
2019-12-05 12:00:00 17.5 5 Nordeste 9 Nordeste 0 -- -- 70
2019-12-05 11:00:00 18.4 2 Sur 9 Sur 0 -- -- 68
2019-12-05 10:00:00 17.7 3 Sudeste 6 Sur 0 -- -- 69
2019-12-05 09:00:00 15.5 0 Calma 10 Sur 0 -- -- 73
2019-12-05 08:00:00 12.9 5 Sudoeste 9 Sur 0 -- -- 84
2019-12-05 07:00:00 13.3 0 Calma 4 Sudoeste 0 -- -- 84
2019-12-05 06:00:00 13.3 0 Calma 8 Noroeste 0 -- -- 84
2019-12-05 05:00:00 13 3 Oeste 7 Noroeste 0 -- -- 85
2019-12-05 04:00:00 13.2 0 Calma 9 Noroeste 0 -- -- 88
2019-12-05 03:00:00 13.1 7 Noroeste 12 Noroeste 0 -- -- 89
2019-12-05 02:00:00 13.6 8 Noroeste 12 Noroeste 0 -- -- 89
2019-12-05 01:00:00 13.4 5 Sudoeste 10 Sudoeste 0 -- -- 89
2019-12-05 00:00:00 13.4 3 Sudoeste 9 Oeste 0 -- -- 89
2019-12-04 23:00:00 13.6 0 Calma 8 Oeste 0 -- -- 89
2019-12-04 22:00:00 13.5 4 Oeste 15 Noroeste 0 -- -- 89
2019-12-04 21:00:00 13.6 3 Noroeste 10 Oeste 0 -- -- 89
2019-12-04 20:00:00 13.5 8 Noroeste 13 Noroeste 0 -- -- 88
2019-12-04 19:00:00 13.6 9 Noroeste 16 Norte 0 -- -- 88
2019-12-04 18:00:00 13.5 10 Norte 15 Nordeste 0 -- -- 89
2019-12-04 17:00:00 13.2 9 Nordeste 20 Este 0 -- -- 90
2019-12-04 16:00:00 13.3 16 Sudeste 21 Este 0 -- -- 93
2019-12-04 15:00:00 12.7 18 Noroeste 25 Norte 0.7 -- -- 95
2019-12-04 14:00:00 11.5 9 Norte 23 Este 3 -- -- 94
2019-12-04 13:00:00 10.2 19 Este 63 Este 7.4 -- -- 90
2019-12-04 12:00:00 14.2 45 Nordeste 53 Este 0 -- -- 86
2019-12-04 11:00:00 15.4 42 Este 61 Este 0 -- -- 79
2019-12-04 10:00:00 15.9 43 Este 60 Sudeste 0 -- -- 80
2019-12-04 09:00:00 16.2 44 Sudeste 66 Sudeste 0 -- -- 80
2019-12-04 08:00:00 16.4 56 Sudeste 67 Sudeste 0 -- -- 84
2019-12-04 07:00:00 16.4 52 Este 71 Este 0 -- -- 92
2019-12-04 06:00:00 16.2 56 Este 73 Este 0 -- -- 92
2019-12-04 05:00:00 16.4 59 Este 76 Este 0 -- -- 90
2019-12-04 04:00:00 16.2 57 Este 89 Este 0 -- -- 90
2019-12-04 03:00:00 16.3 57 Este 75 Este 0.1 -- -- 88
2019-12-04 02:00:00 15.9 57 Este 75 Este 0.2 -- -- 95
2019-12-04 01:00:00 16.3 50 Nordeste 61 Nordeste 0 -- -- 90
2019-12-04 00:00:00 16.3 44 Nordeste 58 Nordeste 0 -- -- 89
2019-12-03 23:00:00 16.2 41 Nordeste 50 Nordeste 0 -- -- 86
2019-12-03 22:00:00 15.8 37 Nordeste 49 Nordeste 0 -- -- 91
2019-12-03 21:00:00 15.5 40 Nordeste 45 Nordeste 0 -- -- 89
2019-12-03 20:00:00 15.6 41 Nordeste 48 Nordeste 0 -- -- 87
2019-12-03 19:00:00 15.3 36 Nordeste 44 Nordeste 0 -- -- 86
2019-12-03 18:00:00 14.7 31 Nordeste 41 Nordeste 0 -- -- 81
2019-12-03 17:00:00 14.5 31 Nordeste 41 Nordeste 0 -- -- 77
2019-12-03 16:00:00 14.3 30 Nordeste 40 Nordeste 0 -- -- 77
2019-12-03 15:00:00 14.1 23 Nordeste 29 Nordeste 0 -- -- 77
2019-12-03 14:00:00 14 24 Nordeste 31 Nordeste 0 -- -- 72
2019-12-03 13:00:00 -- -- -- -- -- -- -- -- --
2019-12-03 12:00:00 13.4 34 Norte 49 Norte 0 -- -- 75
2019-12-03 11:00:00 13 36 Norte 51 Norte 0 -- -- 75
2019-12-03 10:00:00 12.7 42 Norte 59 Nordeste 0 -- -- 75
2019-12-03 09:00:00 12.6 41 Norte 64 Nordeste 0 -- -- 75
2019-12-03 08:00:00 12.6 46 Norte 63 Nordeste 0 -- -- 73
2019-12-03 07:00:00 12.9 47 Norte 62 Nordeste 0 -- -- 74
2019-12-03 06:00:00 12.9 44 Norte 58 Nordeste 0 -- -- 72
2019-12-03 05:00:00 12.9 41 Norte 60 Norte 0 -- -- 74
2019-12-03 04:00:00 12.9 44 Norte 58 Nordeste 0 -- -- 75
2019-12-03 03:00:00 13.3 43 Norte 54 Nordeste 0 -- -- 74
2019-12-03 02:00:00 13.6 46 Nordeste 59 Nordeste 0 -- -- 72
2019-12-03 01:00:00 13.8 40 Norte 55 Nordeste 0 -- -- 74
2019-12-03 00:00:00 13.9 40 Norte 57 Nordeste 0 -- -- 71
2019-12-02 23:00:00 13.9 39 Norte 54 Nordeste 0 -- -- 72
2019-12-02 22:00:00 14.1 41 Nordeste 54 Nordeste 0 -- -- 71
2019-12-02 21:00:00 13.9 46 Nordeste 55 Nordeste 0 -- -- 72
2019-12-02 20:00:00 13.8 45 Nordeste 54 Nordeste 0 -- -- 73
2019-12-02 19:00:00 13.8 43 Nordeste 52 Norte 0 -- -- 75
2019-12-02 18:00:00 14 41 Nordeste 55 Nordeste 0 -- -- 73
2019-12-02 17:00:00 14 42 Norte 57 Nordeste 0 -- -- 74
2019-12-02 16:00:00 13.9 39 Norte 52 Norte 0 -- -- 74
2019-12-02 15:00:00 14 39 Nordeste 49 Nordeste 0 -- -- 75
2019-12-02 14:00:00 14 38 Norte 50 Nordeste 0 -- -- 77
2019-12-02 13:00:00 14.1 36 Norte 49 Nordeste 0 -- -- 77
2019-12-02 12:00:00 14.2 39 Nordeste 53 Nordeste 0 -- -- 77
2019-12-02 11:00:00 14.4 45 Nordeste 54 Nordeste 0 -- -- 80
2019-12-02 10:00:00 14.1 41 Nordeste 53 Nordeste 0 -- -- 82
2019-12-02 09:00:00 13.8 40 Nordeste 52 Nordeste 0.1 -- -- 93
2019-12-02 08:00:00 13 42 Norte 56 Nordeste 11.6 -- -- 99
2019-12-02 07:00:00 13.4 41 Norte 55 Nordeste 12.1 -- -- 99
2019-12-02 06:00:00 13.9 38 Nordeste 46 Nordeste 8.5 -- -- 99
2019-12-02 05:00:00 14.8 32 Nordeste 37 Nordeste 0.1 -- -- 96
2019-12-02 04:00:00 15 24 Nordeste 31 Nordeste 0 -- -- 96
2019-12-02 03:00:00 14.9 23 Nordeste 34 Norte 0 -- -- 95
2019-12-02 02:00:00 15.1 24 Norte 28 Norte 0.1 -- -- 94
2019-12-02 01:00:00 15.5 15 Nordeste 19 Nordeste 0 -- -- 90
2019-12-02 00:00:00 15.6 12 Norte 16 Norte 0 -- -- 87
2019-12-01 23:00:00 15.4 13 Norte 19 Norte 0 -- -- 88
2019-12-01 22:00:00 15.3 13 Norte 17 Norte 0 -- -- 88
2019-12-01 21:00:00 15.4 9 Norte 13 Norte 0 -- -- 88
2019-12-01 20:00:00 15.6 12 Norte 22 Norte 0 -- -- 88
2019-12-01 19:00:00 15.7 20 Norte 24 Norte 0 -- -- 87
2019-12-01 18:00:00 15.7 21 Norte 27 Norte 0 -- -- 86
2019-12-01 17:00:00 15.9 18 Norte 24 Norte 0 -- -- 87
2019-12-01 16:00:00 16.3 22 Norte 33 Nordeste 0 -- -- 86
2019-12-01 15:00:00 18.8 0 Calma 13 Oeste 0 -- -- 67
2019-12-01 14:00:00 19.3 4 Sudoeste 16 Sudoeste 0 -- -- 66
2019-12-01 13:00:00 18.8 6 Sudoeste 29 Sudoeste 0 -- -- 68
2019-12-01 12:00:00 19.8 5 Sudoeste 24 Sudoeste 0 -- -- 69
2019-12-01 11:00:00 18.6 9 Sudoeste 24 Sudoeste 0 -- -- 74
2019-12-01 10:00:00 16.8 5 Sudoeste 17 Oeste 0 -- -- 85
2019-12-01 09:00:00 15.4 5 Oeste 26 Oeste 0 -- -- 87
2019-12-01 08:00:00 15.1 8 Sudoeste 30 Sudoeste 0 -- -- 90
2019-12-01 07:00:00 15 6 Sudoeste 28 Sudoeste 0 -- -- 90
2019-12-01 06:00:00 15.8 7 Sudoeste 34 Sudoeste 0 -- -- 86
2019-12-01 05:00:00 15.5 8 Sudoeste 23 Sur 0 -- -- 89
2019-12-01 04:00:00 15.8 7 Sudoeste 22 Sudoeste 0 -- -- 89
2019-12-01 03:00:00 15.6 5 Sudoeste 27 Oeste 0 -- -- 90
2019-12-01 02:00:00 15.7 9 Sudoeste 29 Sudoeste 0 -- -- 90
2019-12-01 01:00:00 16.1 13 Sudoeste 39 Sudoeste 0 -- -- 91
2019-12-01 00:00:00 16 12 Sudoeste 33 Sudoeste 0 -- -- 91
2019-11-30 23:00:00 15.7 9 Sudoeste 31 Sudoeste 0 -- -- 90
2019-11-30 22:00:00 16 9 Sudoeste 28 Sudoeste 0 -- -- 88
2019-11-30 21:00:00 15.8 5 Sudoeste 26 Sur 0 -- -- 89
2019-11-30 20:00:00 15.6 8 Sudoeste 22 Sur 0 -- -- 92
2019-11-30 19:00:00 15.7 5 Oeste 22 Sur 0 -- -- 92
2019-11-30 18:00:00 16.3 10 Sudoeste 37 Sudoeste 0 -- -- 91
2019-11-30 17:00:00 16.7 8 Sudoeste 29 Sur 0 -- -- 87
2019-11-30 16:00:00 17.6 16 Sudoeste 34 Sur 0 -- -- 83
2019-11-30 15:00:00 17.7 18 Sur 36 Sur 0 -- -- 84
2019-11-30 14:00:00 17.9 22 Sudoeste 36 Sudoeste 0 -- -- 80
2019-11-30 13:00:00 17.7 24 Sudoeste 40 Sur 0 -- -- 80
2019-11-30 12:00:00 18.3 16 Sur 24 Sur 0 -- -- 78
2019-11-30 11:00:00 18.5 6 Sudoeste 19 Sudoeste 0 -- -- 77
2019-11-30 10:00:00 18.1 3 Oeste 17 Sudoeste 0 -- -- 80
2019-11-30 09:00:00 16.3 5 Sudoeste 14 Sudoeste 0 -- -- 92
2019-11-30 08:00:00 14.4 4 Sudoeste 9 Sudoeste 0 -- -- 96
2019-11-30 07:00:00 14.8 2 Sudoeste 9 Sudoeste 0 -- -- 95
2019-11-30 06:00:00 15.1 0 Calma 8 Sur 0 -- -- 93
2019-11-30 05:00:00 15.2 0 Calma 7 Oeste 0 -- -- 92
2019-11-30 04:00:00 15.1 3 Sudoeste 10 Oeste 0 -- -- 90
2019-11-30 03:00:00 15.1 0 Calma 13 Sudoeste 0 -- -- 89
2019-11-30 02:00:00 15.3 7 Sudoeste 21 Sur 0 -- -- 87
2019-11-30 01:00:00 15.9 17 Sur 24 Sudeste 0 -- -- 85
2019-11-30 00:00:00 15.8 19 Sudeste 25 Sudeste 0 -- -- 83
2019-11-29 23:00:00 15.9 21 Sudeste 23 Sudeste 0 -- -- 80
2019-11-29 22:00:00 15.8 14 Sudeste 18 Sudeste 0 -- -- 83
2019-11-29 21:00:00 15.9 8 Sur 10 Sur 0 -- -- 90
2019-11-29 20:00:00 16.3 4 Sudeste 8 Este 0 -- -- 86
2019-11-29 19:00:00 16.8 0 Calma 7 Noroeste 0 -- -- 78
2019-11-29 18:00:00 17 4 Oeste 6 Noroeste 0 -- -- 74
2019-11-29 17:00:00 17.9 2 Sudeste 11 Oeste 0 -- -- 72
2019-11-29 16:00:00 19.4 5 Sur 23 Norte 0 -- -- 66
2019-11-29 15:00:00 19.3 16 Norte 27 Noroeste 0 -- -- 59
2019-11-29 14:00:00 19.4 20 Norte 29 Norte 0 -- -- 62
2019-11-29 13:00:00 21.5 18 Norte 28 Norte 0 -- -- 54
2019-11-29 12:00:00 20 6 Noroeste 21 Norte 0 -- -- 68
2019-11-29 11:00:00 20.9 8 Norte 19 Norte 0 -- -- 59
2019-11-29 10:00:00 18.5 8 Oeste 16 Oeste 0 -- -- 65
2019-11-29 09:00:00 16 8 Sudoeste 18 Sudoeste 0 -- -- 71
2019-11-29 08:00:00 15.7 14 Oeste 20 Oeste 0 -- -- 74
2019-11-29 07:00:00 14.6 7 Sudoeste 19 Sudoeste 0 -- -- 82
2019-11-29 06:00:00 14.6 4 Sudoeste 20 Sudoeste 0 -- -- 80
2019-11-29 05:00:00 14.9 12 Sudoeste 26 Sudoeste 0 -- -- 80
2019-11-29 04:00:00 14.7 5 Sudoeste 22 Oeste 0 -- -- 77
2019-11-29 03:00:00 14.5 3 Oeste 33 Oeste 0 -- -- 82
2019-11-29 02:00:00 14.3 4 Sudoeste 13 Oeste 0 -- -- 85
2019-11-29 01:00:00 14.5 3 Sudoeste 18 Oeste 0 -- -- 85
2019-11-29 00:00:00 14.9 7 Oeste 22 Oeste 0 -- -- 85
2019-11-28 23:00:00 15.2 12 Oeste 29 Sudoeste 0 -- -- 81
2019-11-28 22:00:00 15.1 8 Sudoeste 27 Oeste 0 -- -- 78
2019-11-28 21:00:00 15.2 11 Sudoeste 33 Sudoeste 0 -- -- 75
2019-11-28 20:00:00 15.4 10 Sudoeste 31 Oeste 0 -- -- 71
2019-11-28 19:00:00 16 15 Oeste 30 Oeste 0 -- -- 62
2019-11-28 18:00:00 16.3 12 Oeste 31 Oeste 0 -- -- 62
2019-11-28 17:00:00 17.3 10 Sudoeste 27 Oeste 0 -- -- 62
2019-11-28 16:00:00 19 8 Oeste 22 Sudoeste 0 -- -- 57
2019-11-28 15:00:00 21.8 3 Sudoeste 22 Oeste 0 -- -- 44
2019-11-28 14:00:00 22 5 Oeste 21 Oeste 0 -- -- 43
2019-11-28 13:00:00 22.6 6 Oeste 21 Sudoeste 0 -- -- 44
2019-11-28 12:00:00 21.8 5 Sudoeste 18 Oeste 0 -- -- 47
2019-11-28 11:00:00 21.4 4 Sudoeste 17 Oeste 0 -- -- 50
2019-11-28 10:00:00 19.9 4 Sudoeste 23 Oeste 0 -- -- 54
2019-11-28 09:00:00 17.5 8 Sudoeste 25 Sudoeste 0 -- -- 61
2019-11-28 08:00:00 15 10 Sudoeste 25 Sudoeste 0 -- -- 66
2019-11-28 07:00:00 14.5 10 Sudoeste 22 Sudoeste 0 -- -- 65
2019-11-28 06:00:00 15.5 9 Noroeste 22 Noroeste 0 -- -- 57
2019-11-28 05:00:00 15.2 13 Noroeste 21 Noroeste 0 -- -- 61
2019-11-28 04:00:00 14.6 10 Oeste 23 Oeste 0 -- -- 74
2019-11-28 03:00:00 14.8 14 Oeste 24 Oeste 0 -- -- 74
2019-11-28 02:00:00 14.3 8 Sudoeste 17 Sudoeste 0 -- -- 76
2019-11-28 01:00:00 14.4 4 Oeste 18 Oeste 0 -- -- 76
2019-11-28 00:00:00 14.6 9 Oeste 22 Oeste 0 -- -- 75
2019-11-27 23:00:00 14.2 4 Oeste 11 Oeste 0 -- -- 81
2019-11-27 22:00:00 15.2 3 Sudoeste 12 Oeste 0 -- -- 81
2019-11-27 21:00:00 16.2 5 Sur 12 Sudoeste 0 -- -- 79
2019-11-27 20:00:00 16.4 6 Sudoeste 12 Sur 0 -- -- 74
2019-11-27 19:00:00 16.5 5 Sudoeste 15 Norte 0 -- -- 67
2019-11-27 18:00:00 16.9 10 Noroeste 21 Nordeste 0 -- -- 65
2019-11-27 17:00:00 17.7 9 Norte 27 Noroeste 0 -- -- 68
2019-11-27 16:00:00 18.6 17 Norte 28 Norte 0 -- -- 65
2019-11-27 15:00:00 19.1 20 Norte 39 Norte 0 -- -- 63
2019-11-27 14:00:00 19.7 26 Norte 35 Norte 0 -- -- 60
2019-11-27 06:00:00 17 14 Sudoeste 43 Sudoeste 0 -- -- 81
2019-11-27 05:00:00 17.6 18 Oeste 49 Sudoeste 0 -- -- 73
2019-11-27 04:00:00 15.9 10 Oeste 33 Sudoeste 0 -- -- 89
2019-11-27 03:00:00 15.8 5 Oeste 19 Sudoeste 0 -- -- 91
2019-11-27 02:00:00 16 8 Oeste 28 Sudoeste 0 -- -- 91
2019-11-27 01:00:00 15.7 6 Sudoeste 26 Sudoeste 0 -- -- 90
2019-11-27 00:00:00 15.5 5 Sudoeste 22 Sur 0 -- -- 89
2019-11-26 23:00:00 15.7 5 Sudoeste 33 Sudoeste 0 -- -- 89
2019-11-26 22:00:00 15.6 8 Sudoeste 28 Sudoeste 0 -- -- 91
2019-11-26 21:00:00 15.7 9 Sudoeste 27 Sudoeste 0 -- -- 91
2019-11-26 20:00:00 15.6 8 Sudoeste 26 Sudoeste 0 -- -- 87
2019-11-26 19:00:00 16 5 Oeste 22 Sur 0 -- -- 80
2019-11-26 18:00:00 16.8 4 Oeste 23 Sudoeste 0 -- -- 73
2019-11-26 17:00:00 17.7 10 Sudoeste 29 Sudoeste 0 -- -- 66
2019-11-26 16:00:00 19.5 7 Sudoeste 26 Sudoeste 0 -- -- 64
2019-11-26 15:00:00 20.6 6 Sudoeste 23 Sudoeste 0 -- -- 62
2019-11-26 14:00:00 19.9 12 Sudoeste 32 Sudoeste 0 -- -- 78
2019-11-26 13:00:00 20.2 19 Sudoeste -- -- -- -- -- 78
2019-11-26 12:00:00 -- -- -- -- -- -- -- -- --
2019-11-26 11:00:00 -- -- -- -- -- -- -- -- --
2019-11-26 10:00:00 -- -- -- -- -- -- -- -- --
2019-11-26 09:00:00 -- -- -- -- -- -- -- -- --
2019-11-26 08:00:00 -- -- -- -- -- -- -- -- --
2019-11-26 07:00:00 -- -- -- -- -- -- -- -- --
2019-11-26 06:00:00 -- -- -- -- -- -- -- -- --
2019-11-26 05:00:00 -- -- -- -- -- -- -- -- --
2019-11-26 04:00:00 -- -- -- -- -- -- -- -- --
2019-11-26 03:00:00 -- -- -- -- -- -- -- -- --
2019-11-26 02:00:00 -- -- -- -- -- -- -- -- --
2019-11-26 01:00:00 -- -- -- -- -- -- -- -- --
2019-11-26 00:00:00 -- -- -- -- -- -- -- -- --
2019-11-25 23:00:00 -- -- -- -- -- -- -- -- --
2019-11-25 22:00:00 -- -- -- -- -- -- -- -- --
2019-11-25 21:00:00 -- -- -- -- -- -- -- -- --
2019-11-25 20:00:00 -- -- -- -- -- -- -- -- --
2019-11-25 19:00:00 -- -- -- -- -- -- -- -- --
2019-11-25 18:00:00 -- -- -- -- -- -- -- -- --
2019-11-25 17:00:00 -- -- -- -- -- -- -- -- --
2019-11-25 16:00:00 -- -- -- -- -- -- -- -- --
2019-11-25 15:00:00 -- -- -- -- -- -- -- -- --
2019-11-25 14:00:00 -- -- -- -- -- -- -- -- --
2019-11-25 13:00:00 -- -- -- -- -- -- -- -- --
2019-11-25 12:00:00 -- -- -- -- -- -- -- -- --
2019-11-25 11:00:00 -- -- -- -- -- -- -- -- --
2019-11-25 10:00:00 -- -- -- -- -- -- -- -- --
2019-11-25 09:00:00 -- -- -- -- -- -- -- -- --
2019-11-25 08:00:00 -- -- -- -- -- -- -- -- --
2019-11-25 07:00:00 -- -- -- -- -- -- -- -- --
2019-11-25 06:00:00 -- -- -- -- -- -- -- -- --
2019-11-25 05:00:00 -- -- -- -- -- -- -- -- --
2019-11-25 04:00:00 -- -- -- -- -- -- -- -- --
2019-11-25 03:00:00 -- -- -- -- -- -- -- -- --
2019-11-25 02:00:00 -- -- -- -- -- -- -- -- --
2019-11-25 01:00:00 -- -- -- -- -- -- -- -- --
2019-11-25 00:00:00 -- -- -- -- -- -- -- -- --
2019-11-24 23:00:00 -- -- -- -- -- -- -- -- --
2019-11-24 22:00:00 -- -- -- -- -- -- -- -- --
2019-11-24 21:00:00 -- -- -- -- -- -- -- -- --
2019-11-24 20:00:00 -- -- -- -- -- -- -- -- --
2019-11-24 19:00:00 -- -- -- -- -- -- -- -- --
2019-11-24 18:00:00 -- -- -- -- -- -- -- -- --
2019-11-24 17:00:00 -- -- -- -- -- -- -- -- --
2019-11-24 16:00:00 -- -- -- -- -- -- -- -- --
2019-11-24 15:00:00 -- -- -- -- -- -- -- -- --
2019-11-24 14:00:00 -- -- -- -- -- -- -- -- --
2019-11-24 13:00:00 -- -- -- -- -- -- -- -- --
2019-11-24 12:00:00 -- -- -- -- -- -- -- -- --
2019-11-24 11:00:00 -- -- -- -- -- -- -- -- --
2019-11-24 10:00:00 -- -- -- -- -- -- -- -- --
2019-11-24 09:00:00 -- -- -- -- -- -- -- -- --
2019-11-24 08:00:00 -- -- -- -- -- -- -- -- --
2019-11-24 07:00:00 -- -- -- -- -- -- -- -- --
2019-11-24 06:00:00 -- -- -- -- -- -- -- -- --
2019-11-24 05:00:00 -- -- -- -- -- -- -- -- --
2019-11-24 04:00:00 -- -- -- -- -- -- -- -- --
2019-11-24 03:00:00 -- -- -- -- -- -- -- -- --
2019-11-24 02:00:00 -- -- -- -- -- -- -- -- --
2019-11-24 01:00:00 -- -- -- -- -- -- -- -- --
2019-11-24 00:00:00 -- -- -- -- -- -- -- -- --
2019-11-23 23:00:00 -- -- -- -- -- -- -- -- --
2019-11-23 22:00:00 -- -- -- -- -- -- -- -- --
2019-11-23 21:00:00 -- -- -- -- -- -- -- -- --
2019-11-23 20:00:00 -- -- -- -- -- -- -- -- --
2019-11-23 19:00:00 -- -- -- -- -- -- -- -- --
2019-11-23 18:00:00 -- -- -- -- -- -- -- -- --
2019-11-23 17:00:00 -- -- -- -- -- -- -- -- --
2019-11-23 16:00:00 -- -- -- -- -- -- -- -- --
2019-11-23 15:00:00 -- -- -- -- -- -- -- -- --
2019-11-23 14:00:00 -- -- -- -- -- -- -- -- --
2019-11-23 13:00:00 -- -- -- -- -- -- -- -- --
2019-11-23 12:00:00 -- -- -- -- -- -- -- -- --
2019-11-23 11:00:00 -- -- -- -- -- -- -- -- --
2019-11-23 10:00:00 -- -- -- -- -- -- -- -- --
2019-11-23 09:00:00 -- -- -- -- -- -- -- -- --
2019-11-23 08:00:00 -- -- -- -- -- -- -- -- --
2019-11-23 07:00:00 -- -- -- -- -- -- -- -- --
2019-11-23 06:00:00 -- -- -- -- -- -- -- -- --
2019-11-23 05:00:00 -- -- -- -- -- -- -- -- --
2019-11-23 04:00:00 -- -- -- -- -- -- -- -- --
2019-11-23 03:00:00 -- -- -- -- -- -- -- -- --
2019-11-23 02:00:00 -- -- -- -- -- -- -- -- --
2019-11-23 01:00:00 -- -- -- -- -- -- -- -- --
2019-11-23 00:00:00 -- -- -- -- -- -- -- -- --
2019-11-22 23:00:00 -- -- -- -- -- -- -- -- --
2019-11-22 22:00:00 -- -- -- -- -- -- -- -- --
2019-11-22 21:00:00 -- -- -- -- -- -- -- -- --
2019-11-22 20:00:00 -- -- -- -- -- -- -- -- --
2019-11-22 19:00:00 -- -- -- -- -- -- -- -- --
2019-11-22 18:00:00 -- -- -- -- -- -- -- -- --
2019-11-22 17:00:00 -- -- -- -- -- -- -- -- --
2019-11-22 16:00:00 -- -- -- -- -- -- -- -- --
2019-11-22 15:00:00 -- -- -- -- -- -- -- -- --
2019-11-22 14:00:00 -- -- -- -- -- -- -- -- --
2019-11-22 13:00:00 -- -- -- -- -- -- -- -- --
2019-11-22 12:00:00 -- -- -- -- -- -- -- -- --
2019-11-22 11:00:00 -- -- -- -- -- -- -- -- --
2019-11-22 10:00:00 -- -- -- -- -- -- -- -- --
2019-11-22 09:00:00 -- -- -- -- -- -- -- -- --
2019-11-22 08:00:00 -- -- -- -- -- -- -- -- --
2019-11-22 07:00:00 -- -- -- -- -- -- -- -- --
2019-11-22 06:00:00 -- -- -- -- -- -- -- -- --
2019-11-22 05:00:00 -- -- -- -- -- -- -- -- --
2019-11-22 04:00:00 -- -- -- -- -- -- -- -- --
2019-11-22 03:00:00 -- -- -- -- -- -- -- -- --
2019-11-22 02:00:00 -- -- -- -- -- -- -- -- --
2019-11-22 01:00:00 -- -- -- -- -- -- -- -- --
2019-11-22 00:00:00 -- -- -- -- -- -- -- -- --
2019-11-21 23:00:00 -- -- -- -- -- -- -- -- --
2019-11-21 22:00:00 -- -- -- -- -- -- -- -- --
2019-11-21 21:00:00 -- -- -- -- -- -- -- -- --
2019-11-21 20:00:00 -- -- -- -- -- -- -- -- --
2019-11-21 19:00:00 -- -- -- -- -- -- -- -- --
2019-11-21 18:00:00 -- -- -- -- -- -- -- -- --
2019-11-21 17:00:00 -- -- -- -- -- -- -- -- --
2019-11-21 16:00:00 -- -- -- -- -- -- -- -- --
2019-11-21 15:00:00 -- -- -- -- -- -- -- -- --
2019-11-21 14:00:00 -- -- -- -- -- -- -- -- --
2019-11-21 13:00:00 -- -- -- -- -- -- -- -- --
2019-11-21 12:00:00 -- -- -- -- -- -- -- -- --
2019-11-21 11:00:00 -- -- -- -- -- -- -- -- --
2019-11-21 10:00:00 -- -- -- -- -- -- -- -- --
2019-11-21 09:00:00 -- -- -- -- -- -- -- -- --
2019-11-21 08:00:00 -- -- -- -- -- -- -- -- --
2019-11-21 07:00:00 -- -- -- -- -- -- -- -- --
2019-11-21 06:00:00 -- -- -- -- -- -- -- -- --
2019-11-21 05:00:00 -- -- -- -- -- -- -- -- --
2019-11-21 04:00:00 -- -- -- -- -- -- -- -- --
2019-11-21 03:00:00 -- -- -- -- -- -- -- -- --
2019-11-21 02:00:00 -- -- -- -- -- -- -- -- --
2019-11-21 01:00:00 -- -- -- -- -- -- -- -- --
2019-11-21 00:00:00 -- -- -- -- -- -- -- -- --
2019-11-20 23:00:00 -- -- -- -- -- -- -- -- --
2019-11-20 22:00:00 -- -- -- -- -- -- -- -- --
2019-11-20 21:00:00 -- -- -- -- -- -- -- -- --
2019-11-20 20:00:00 -- -- -- -- -- -- -- -- --
2019-11-20 19:00:00 -- -- -- -- -- -- -- -- --
2019-11-20 18:00:00 -- -- -- -- -- -- -- -- --
2019-11-20 17:00:00 -- -- -- -- -- -- -- -- --
2019-11-20 16:00:00 -- -- -- -- -- -- -- -- --
2019-11-20 15:00:00 -- -- -- -- -- -- -- -- --
2019-11-20 14:00:00 -- -- -- -- -- -- -- -- --
2019-11-20 13:00:00 -- -- -- -- -- -- -- -- --
2019-11-20 12:00:00 -- -- -- -- -- -- -- -- --
2019-11-20 11:00:00 -- -- -- -- -- -- -- -- --
2019-11-20 10:00:00 -- -- -- -- -- -- -- -- --
2019-11-20 09:00:00 -- -- -- -- -- -- -- -- --
2019-11-20 08:00:00 -- -- -- -- -- -- -- -- --
2019-11-20 07:00:00 -- -- -- -- -- -- -- -- --
2019-11-20 06:00:00 -- -- -- -- -- -- -- -- --
2019-11-20 05:00:00 -- -- -- -- -- -- -- -- --
2019-11-20 04:00:00 -- -- -- -- -- -- -- -- --
2019-11-20 03:00:00 -- -- -- -- -- -- -- -- --
2019-11-20 02:00:00 -- -- -- -- -- -- -- -- --
2019-11-20 01:00:00 -- -- -- -- -- -- -- -- --
2019-11-20 00:00:00 -- -- -- -- -- -- -- -- --
2019-11-19 23:00:00 -- -- -- -- -- -- -- -- --
2019-11-19 22:00:00 -- -- -- -- -- -- -- -- --
2019-11-19 21:00:00 -- -- -- -- -- -- -- -- --
2019-11-19 20:00:00 -- -- -- -- -- -- -- -- --
2019-11-19 19:00:00 -- -- -- -- -- -- -- -- --
2019-11-19 18:00:00 -- -- -- -- -- -- -- -- --
2019-11-19 17:00:00 -- -- -- -- -- -- -- -- --
2019-11-19 16:00:00 -- -- -- -- -- -- -- -- --
2019-11-19 15:00:00 -- -- -- -- -- -- -- -- --
2019-11-19 14:00:00 -- -- -- -- -- -- -- -- --
2019-11-19 13:00:00 -- -- -- -- -- -- -- -- --
2019-11-19 12:00:00 -- -- -- -- -- -- -- -- --
2019-11-19 11:00:00 -- -- -- -- -- -- -- -- --
2019-11-19 10:00:00 -- -- -- -- -- -- -- -- --
2019-11-19 09:00:00 -- -- -- -- -- -- -- -- --
2019-11-19 08:00:00 -- -- -- -- -- -- -- -- --
2019-11-19 07:00:00 -- -- -- -- -- -- -- -- --
2019-11-19 06:00:00 -- -- -- -- -- -- -- -- --
2019-11-19 05:00:00 -- -- -- -- -- -- -- -- --
2019-11-19 04:00:00 -- -- -- -- -- -- -- -- --
2019-11-19 03:00:00 -- -- -- -- -- -- -- -- --
2019-11-19 02:00:00 -- -- -- -- -- -- -- -- --
2019-11-19 01:00:00 -- -- -- -- -- -- -- -- --
2019-11-19 00:00:00 -- -- -- -- -- -- -- -- --
2019-11-18 23:00:00 -- -- -- -- -- -- -- -- --
2019-11-18 22:00:00 -- -- -- -- -- -- -- -- --
2019-11-18 21:00:00 -- -- -- -- -- -- -- -- --
2019-11-18 20:00:00 -- -- -- -- -- -- -- -- --
2019-11-18 19:00:00 -- -- -- -- -- -- -- -- --
2019-11-18 18:00:00 -- -- -- -- -- -- -- -- --
2019-11-18 17:00:00 -- -- -- -- -- -- -- -- --
2019-11-18 16:00:00 -- -- -- -- -- -- -- -- --
2019-11-18 15:00:00 -- -- -- -- -- -- -- -- --
2019-11-18 14:00:00 -- -- -- -- -- -- -- -- --
2019-11-18 13:00:00 -- -- -- -- -- -- -- -- --
2019-11-18 12:00:00 -- -- -- -- -- -- -- -- --
2019-11-18 11:00:00 -- -- -- -- -- -- -- -- --
2019-11-18 10:00:00 -- -- -- -- -- -- -- -- --
2019-11-18 09:00:00 -- -- -- -- -- -- -- -- --
2019-11-18 08:00:00 -- -- -- -- -- -- -- -- --
2019-11-18 07:00:00 -- -- -- -- -- -- -- -- --
2019-11-18 06:00:00 -- -- -- -- -- -- -- -- --
2019-11-18 05:00:00 -- -- -- -- -- -- -- -- --
2019-11-18 04:00:00 -- -- -- -- -- -- -- -- --
2019-11-18 03:00:00 -- -- -- -- -- -- -- -- --
2019-11-18 02:00:00 -- -- -- -- -- -- -- -- --
2019-11-18 01:00:00 -- -- -- -- -- -- -- -- --
2019-11-18 00:00:00 -- -- -- -- -- -- -- -- --
2019-11-17 23:00:00 -- -- -- -- -- -- -- -- --
2019-11-17 22:00:00 -- -- -- -- -- -- -- -- --
2019-11-17 21:00:00 -- -- -- -- -- -- -- -- --
2019-11-17 20:00:00 -- -- -- -- -- -- -- -- --
2019-11-17 19:00:00 -- -- -- -- -- -- -- -- --
2019-11-17 18:00:00 -- -- -- -- -- -- -- -- --
2019-11-17 17:00:00 -- -- -- -- -- -- -- -- --
2019-11-17 16:00:00 -- -- -- -- -- -- -- -- --
2019-11-17 15:00:00 -- -- -- -- -- -- -- -- --
2019-11-17 14:00:00 -- -- -- -- -- -- -- -- --
2019-11-17 13:00:00 -- -- -- -- -- -- -- -- --
2019-11-17 12:00:00 -- -- -- -- -- -- -- -- --
2019-11-17 11:00:00 -- -- -- -- -- -- -- -- --
2019-11-17 10:00:00 -- -- -- -- -- -- -- -- --
2019-11-17 09:00:00 -- -- -- -- -- -- -- -- --
2019-11-17 08:00:00 -- -- -- -- -- -- -- -- --
2019-11-17 07:00:00 -- -- -- -- -- -- -- -- --
2019-11-17 06:00:00 -- -- -- -- -- -- -- -- --
2019-11-17 05:00:00 -- -- -- -- -- -- -- -- --
2019-11-17 04:00:00 -- -- -- -- -- -- -- -- --
2019-11-17 03:00:00 -- -- -- -- -- -- -- -- --
2019-11-17 02:00:00 -- -- -- -- -- -- -- -- --
2019-11-17 01:00:00 -- -- -- -- -- -- -- -- --
2019-11-17 00:00:00 -- -- -- -- -- -- -- -- --
2019-11-16 23:00:00 -- -- -- -- -- -- -- -- --
2019-11-16 22:00:00 -- -- -- -- -- -- -- -- --
2019-11-16 21:00:00 -- -- -- -- -- -- -- -- --
2019-11-16 20:00:00 -- -- -- -- -- -- -- -- --
2019-11-16 19:00:00 -- -- -- -- -- -- -- -- --
2019-11-16 18:00:00 -- -- -- -- -- -- -- -- --
2019-11-16 17:00:00 -- -- -- -- -- -- -- -- --
2019-11-16 16:00:00 -- -- -- -- -- -- -- -- --
2019-11-16 15:00:00 11.3 11 Nordeste 48 Norte 0.6 -- -- 80
2019-11-16 14:00:00 11.9 21 Norte 44 Noroeste 0 -- -- 72
2019-11-16 13:00:00 13.7 12 Nordeste 19 Este 0 -- -- 64
2019-11-16 12:00:00 13.6 13 Este 25 Este 0 -- -- 65
2019-11-16 11:00:00 13.2 17 Nordeste 26 Nordeste 0 -- -- 68
2019-11-16 10:00:00 12.2 12 Noroeste 24 Oeste 0 -- -- 70
2019-11-16 09:00:00 11.6 11 Oeste 23 Sudeste 0 -- -- 72
2019-11-16 08:00:00 12.4 19 Sudeste 24 Sudeste 0 -- -- 72
2019-11-16 07:00:00 12 7 Noroeste 25 Norte 0 -- -- 71
2019-11-16 06:00:00 12.3 18 Norte 25 Norte 0 -- -- 70
2019-11-16 05:00:00 11.4 13 Norte 40 Norte 0 -- -- 71
2019-11-16 04:00:00 10.9 23 Norte 39 Noroeste 0 -- -- 71
2019-11-16 03:00:00 10.9 13 Noroeste 22 Noroeste 0 -- -- 62
2019-11-16 02:00:00 11.3 3 Sudoeste 19 Oeste 0 -- -- 59
2019-11-16 01:00:00 11.6 8 Oeste 20 Oeste 0 -- -- 61
2019-11-16 00:00:00 11.2 10 Oeste 21 Oeste 0 -- -- 65
2019-11-15 23:00:00 10.6 11 Oeste 22 Noroeste 0 -- -- 68
2019-11-15 22:00:00 9.9 3 Oeste 13 Oeste 0 -- -- 71
2019-11-15 21:00:00 10.2 4 Oeste 14 Sur 0 -- -- 71
2019-11-15 20:00:00 10.8 4 Sudoeste 17 Sudoeste 0 -- -- 70
2019-11-15 19:00:00 10.8 5 Sudoeste 18 Oeste 0 -- -- 65
2019-11-15 18:00:00 11.5 5 Sudoeste 18 Sudoeste 0 -- -- 59
2019-11-15 17:00:00 12.8 8 Oeste 18 Oeste 0 -- -- 59
2019-11-15 16:00:00 14.9 2 Sudoeste 14 Oeste 0 -- -- 55
2019-11-15 15:00:00 14.6 3 Oeste 23 Oeste 0 -- -- 53
2019-11-15 14:00:00 15 8 Noroeste 29 Noroeste 0 -- -- 54
2019-11-15 13:00:00 15.2 12 Norte 30 Norte 0 -- -- 57
2019-11-15 12:00:00 13.7 12 Norte 30 Norte 0 -- -- 64
2019-11-15 11:00:00 13.1 9 Noroeste -- -- -- -- -- 69
2019-11-15 10:00:00 -- -- -- -- -- -- -- -- --
2019-11-15 09:00:00 -- -- -- -- -- -- -- -- --
2019-11-15 08:00:00 -- -- -- -- -- -- -- -- --
2019-11-15 07:00:00 -- -- -- -- -- -- -- -- --
2019-11-15 06:00:00 -- -- -- -- -- -- -- -- --
2019-11-15 05:00:00 -- -- -- -- -- -- -- -- --
2019-11-15 04:00:00 -- -- -- -- -- -- -- -- --
2019-11-15 03:00:00 -- -- -- -- -- -- -- -- --
2019-11-15 02:00:00 -- -- -- -- -- -- -- -- --
2019-11-15 01:00:00 -- -- -- -- -- -- -- -- --
2019-11-15 00:00:00 -- -- -- -- -- -- -- -- --